createdAt,value
2022-12-05T00:00:50.172Z,32.83
2022-12-05T00:03:17.510Z,31.73
2022-12-05T00:05:44.814Z,31.40
2022-12-05T00:08:12.407Z,31.60
2022-12-05T00:10:40.043Z,31.43
2022-12-05T00:13:07.658Z,30.23
2022-12-05T00:15:41.498Z,33.53
2022-12-05T00:18:09.046Z,30.53
2022-12-05T00:20:36.338Z,29.13
2022-12-05T00:23:03.714Z,30.10
2022-12-05T00:25:31.003Z,31.90
2022-12-05T00:27:58.371Z,33.30
2022-12-05T00:30:25.665Z,33.30
2022-12-05T00:32:52.969Z,32.23
2022-12-05T00:35:20.261Z,29.47
2022-12-05T00:37:47.591Z,34.23
2022-12-05T00:40:14.930Z,33.93
2022-12-05T00:42:42.463Z,33.43
2022-12-05T00:45:09.920Z,34.67
2022-12-05T00:47:37.231Z,33.10
2022-12-05T00:50:05.190Z,31.63
2022-12-05T00:52:32.474Z,32.23
2022-12-05T00:54:59.765Z,33.37
2022-12-05T00:57:27.022Z,32.67
2022-12-05T00:59:54.264Z,33.80
2022-12-05T01:02:21.560Z,34.10
2022-12-05T01:04:48.798Z,33.97
2022-12-05T01:07:16.179Z,31.43
2022-12-05T01:09:43.432Z,32.23
2022-12-05T01:12:10.688Z,31.03
2022-12-05T01:14:37.990Z,30.00
2022-12-05T01:17:05.450Z,29.10
2022-12-05T01:19:33.502Z,31.20
2022-12-05T01:22:00.885Z,28.93
2022-12-05T01:24:29.419Z,28.73
2022-12-05T01:26:57.335Z,26.93
2022-12-05T01:29:25.118Z,24.90
2022-12-05T01:31:52.882Z,28.27
2022-12-05T01:34:20.454Z,25.80
2022-12-05T01:36:48.114Z,20.47
2022-12-05T01:39:15.761Z,29.07
2022-12-05T01:41:44.579Z,27.10
2022-12-05T01:44:11.908Z,27.03
2022-12-05T01:46:40.492Z,27.63
2022-12-05T01:49:10.486Z,25.67
2022-12-05T01:51:39.525Z,28.10
2022-12-05T01:54:07.253Z,25.70
2022-12-05T01:56:35.025Z,25.03
2022-12-05T01:59:03.162Z,25.63
2022-12-05T02:01:30.502Z,24.47
2022-12-05T02:03:58.964Z,24.87
2022-12-05T02:06:27.289Z,26.27
2022-12-05T02:08:55.063Z,26.97
2022-12-05T02:11:23.376Z,27.17
2022-12-05T02:13:53.787Z,26.50
2022-12-05T02:16:21.094Z,27.73
2022-12-05T02:19:07.330Z,26.77
2022-12-05T02:21:40.749Z,25.27
2022-12-05T02:24:13.986Z,27.00
2022-12-05T02:26:50.978Z,26.97
2022-12-05T02:29:37.116Z,21.40
2022-12-05T02:32:11.069Z,24.47
2022-12-05T02:34:45.504Z,27.70
2022-12-05T02:37:20.271Z,24.57
2022-12-05T02:40:10.577Z,25.23
2022-12-05T02:42:54.461Z,21.90
2022-12-05T02:45:25.168Z,25.73
2022-12-05T02:47:53.577Z,25.27
2022-12-05T02:51:16.643Z,26.20
2022-12-05T02:53:46.169Z,24.47
2022-12-05T02:56:13.510Z,26.63
2022-12-05T02:58:44.820Z,24.60
2022-12-05T03:01:12.192Z,26.50
2022-12-05T03:03:39.482Z,16.60
2022-12-05T03:07:47.510Z,20.47
2022-12-05T03:10:16.114Z,22.47
2022-12-05T03:12:49.432Z,19.27
2022-12-05T03:15:18.956Z,21.30
2022-12-05T03:17:53.558Z,18.50
2022-12-05T03:20:26.082Z,21.93
2022-12-05T03:23:00.390Z,19.07
2022-12-05T03:25:34.282Z,23.03
2022-12-05T03:28:14.600Z,24.60
2022-12-05T03:30:42.716Z,23.23
2022-12-05T03:33:12.706Z,25.77
2022-12-05T03:35:51.582Z,24.40
2022-12-05T03:38:21.941Z,23.27
2022-12-05T03:41:01.283Z,26.10
2022-12-05T03:43:57.729Z,26.00
2022-12-05T03:46:27.875Z,24.00
2022-12-05T03:48:58.360Z,23.57
2022-12-05T03:51:29.004Z,22.83
2022-12-05T03:54:02.560Z,22.57
2022-12-05T03:56:37.682Z,21.97
2022-12-05T03:59:19.984Z,24.97
2022-12-05T04:01:48.314Z,23.73
2022-12-05T04:04:18.858Z,23.37
2022-12-05T04:06:47.905Z,23.33
2022-12-05T04:09:17.962Z,22.77
2022-12-05T04:11:50.882Z,25.07
2022-12-05T04:14:20.441Z,25.27
2022-12-05T04:17:04.740Z,24.73
2022-12-05T04:19:54.910Z,26.27
2022-12-05T04:22:23.631Z,26.13
2022-12-05T04:25:10.349Z,23.73
2022-12-05T04:27:41.447Z,24.03
2022-12-05T04:30:13.561Z,23.27
2022-12-05T04:32:43.673Z,21.47
2022-12-05T04:35:14.644Z,24.27
2022-12-05T04:37:44.375Z,26.33
2022-12-05T04:40:33.556Z,21.00
2022-12-05T04:43:01.352Z,25.10
2022-12-05T04:45:28.998Z,23.70
2022-12-05T04:47:58.355Z,26.07
2022-12-05T04:50:27.676Z,24.53
2022-12-05T04:52:56.003Z,23.97
2022-12-05T04:55:29.454Z,23.93
2022-12-05T04:58:00.076Z,24.57
2022-12-05T05:00:29.223Z,22.53
2022-12-05T05:03:05.270Z,21.73
2022-12-05T05:05:33.749Z,23.07
2022-12-05T05:08:01.507Z,23.77
2022-12-05T05:10:46.077Z,22.60
2022-12-05T05:13:13.542Z,22.73
2022-12-05T05:15:41.597Z,24.30
2022-12-05T05:18:10.412Z,24.20
2022-12-05T05:20:38.061Z,21.67
2022-12-05T05:23:05.721Z,22.20
2022-12-05T05:25:33.555Z,24.07
2022-12-05T05:28:00.968Z,23.53
2022-12-05T05:30:28.631Z,21.87
2022-12-05T05:32:56.311Z,20.67
2022-12-05T05:35:23.785Z,23.77
2022-12-05T05:37:51.326Z,27.08
2022-12-05T05:40:19.179Z,25.47
2022-12-05T05:42:47.405Z,20.27
2022-12-05T05:45:15.663Z,27.23
2022-12-05T05:47:43.662Z,23.23
2022-12-05T05:50:16.269Z,25.17
2022-12-05T05:52:45.449Z,25.77
2022-12-05T05:55:12.844Z,22.67
2022-12-05T05:57:40.121Z,25.17
2022-12-05T06:00:08.500Z,22.67
2022-12-05T06:02:37.556Z,22.60
2022-12-05T06:05:05.859Z,24.20
2022-12-05T06:07:33.398Z,23.70
2022-12-05T06:10:01.190Z,19.13
2022-12-05T06:12:28.823Z,22.03
2022-12-05T06:14:56.324Z,23.57
2022-12-05T06:17:23.685Z,20.53
2022-12-05T06:19:51.132Z,23.10
2022-12-05T06:22:23.385Z,20.53
2022-12-05T06:24:51.033Z,19.93
2022-12-05T06:27:18.322Z,22.53
2022-12-05T06:29:45.768Z,35.30
2022-12-05T06:32:13.160Z,42.33
2022-12-05T06:34:40.553Z,22.20
2022-12-05T06:37:07.953Z,18.03
2022-12-05T06:39:35.292Z,22.50
2022-12-05T06:42:02.725Z,20.10
2022-12-05T06:44:30.122Z,18.70
2022-12-05T06:46:57.576Z,24.47
2022-12-05T06:49:30.856Z,20.70
2022-12-05T06:52:01.178Z,19.83
2022-12-05T06:54:28.588Z,18.00
2022-12-05T06:56:55.977Z,20.20
2022-12-05T06:59:23.377Z,20.10
2022-12-05T07:01:51.312Z,18.43
2022-12-05T07:04:26.047Z,20.43
2022-12-05T07:06:54.581Z,20.17
2022-12-05T07:09:43.609Z,19.07
2022-12-05T07:12:11.187Z,18.10
2022-12-05T07:14:47.476Z,19.03
2022-12-05T07:17:15.358Z,19.53
2022-12-05T07:19:42.699Z,20.57
2022-12-05T07:22:15.381Z,19.43
2022-12-05T07:24:43.375Z,18.33
2022-12-05T07:27:10.716Z,18.23
2022-12-05T07:29:38.106Z,19.33
2022-12-05T07:32:05.598Z,18.03
2022-12-05T07:34:32.966Z,17.43
2022-12-05T07:37:00.755Z,19.83
2022-12-05T07:39:28.184Z,18.20
2022-12-05T07:41:55.534Z,21.47
2022-12-05T07:44:22.919Z,17.57
2022-12-05T07:46:50.284Z,18.10
2022-12-05T07:49:17.669Z,18.73
2022-12-05T07:51:45.085Z,14.93
2022-12-05T07:54:12.637Z,18.40
2022-12-05T07:56:43.341Z,18.23
2022-12-05T07:59:14.915Z,17.97
2022-12-05T08:01:42.372Z,17.27
2022-12-05T08:04:15.089Z,18.93
2022-12-05T08:06:43.466Z,18.27
2022-12-05T08:09:11.001Z,16.67
2022-12-05T08:11:38.421Z,17.97
2022-12-05T08:14:06.262Z,17.20
2022-12-05T08:16:33.910Z,18.50
2022-12-05T08:19:02.483Z,17.97
2022-12-05T08:21:29.880Z,17.50
2022-12-05T08:23:57.352Z,17.57
2022-12-05T08:26:26.594Z,17.70
2022-12-05T08:28:55.144Z,16.80
2022-12-05T08:31:24.203Z,17.40
2022-12-05T08:33:57.084Z,18.20
2022-12-05T08:36:26.793Z,17.07
2022-12-05T08:39:01.988Z,16.60
2022-12-05T08:41:30.353Z,17.37
2022-12-05T08:44:05.455Z,17.70
2022-12-05T08:46:33.889Z,16.37
2022-12-05T08:49:01.587Z,18.37
2022-12-05T08:51:28.916Z,17.10
2022-12-05T08:53:56.478Z,17.10
2022-12-05T08:56:27.075Z,15.73
2022-12-05T08:59:01.127Z,17.53
2022-12-05T09:01:32.115Z,17.73
2022-12-05T09:04:00.792Z,16.53
2022-12-05T09:06:29.558Z,16.10
2022-12-05T09:08:58.447Z,15.70
2022-12-05T09:11:27.394Z,17.40
2022-12-05T09:13:55.756Z,21.67
2022-12-05T09:16:35.118Z,18.77
2022-12-05T09:19:07.441Z,16.43
2022-12-05T09:21:34.910Z,18.37
2022-12-05T09:24:02.401Z,22.10
2022-12-05T09:26:30.416Z,16.40
2022-12-05T09:28:58.308Z,18.33
2022-12-05T09:31:27.323Z,15.80
2022-12-05T09:33:55.028Z,17.57
2022-12-05T09:36:23.545Z,18.50
2022-12-05T09:38:51.385Z,26.93
2022-12-05T09:41:56.815Z,19.03
2022-12-05T09:44:42.508Z,28.10
2022-12-05T09:47:15.325Z,15.50
2022-12-05T09:49:48.201Z,17.53
2022-12-05T09:52:23.589Z,21.00
2022-12-05T09:54:57.404Z,18.33
2022-12-05T09:57:34.091Z,20.33
2022-12-05T10:00:03.590Z,16.03
2022-12-05T10:02:40.990Z,24.40
2022-12-05T10:05:11.370Z,16.57
2022-12-05T10:07:44.319Z,15.17
2022-12-05T10:10:24.111Z,15.27
2022-12-05T10:13:11.787Z,14.50
2022-12-05T10:15:45.129Z,15.60
2022-12-05T10:18:29.183Z,13.57
2022-12-05T10:21:15.321Z,13.77
2022-12-05T10:24:01.617Z,13.87
2022-12-05T10:26:30.846Z,14.20
2022-12-05T10:29:04.127Z,13.37
2022-12-05T10:31:33.600Z,14.40
2022-12-05T10:34:17.520Z,13.20
2022-12-05T10:36:52.267Z,14.57
2022-12-05T10:39:20.046Z,15.00
2022-12-05T10:41:49.892Z,13.27
2022-12-05T10:44:17.382Z,13.27
2022-12-05T10:46:44.909Z,14.70
2022-12-05T10:49:12.722Z,12.87
2022-12-05T10:51:40.481Z,13.77
2022-12-05T10:54:19.585Z,11.73
2022-12-05T10:56:54.668Z,11.83
2022-12-05T10:59:26.501Z,11.57
2022-12-05T11:01:59.093Z,13.37
2022-12-05T11:04:30.599Z,14.03
2022-12-05T11:06:58.099Z,14.50
2022-12-05T11:09:26.850Z,14.37
2022-12-05T11:12:12.883Z,13.80
2022-12-05T11:14:40.353Z,14.27
2022-12-05T11:17:07.976Z,14.03
2022-12-05T11:19:37.141Z,14.80
2022-12-05T11:22:05.683Z,14.50
2022-12-05T11:24:37.955Z,14.50
2022-12-05T11:27:17.398Z,14.23
2022-12-05T11:29:53.967Z,12.93
2022-12-05T11:32:22.778Z,14.33
2022-12-05T11:34:57.895Z,12.63
2022-12-05T11:37:27.686Z,11.97
2022-12-05T11:39:55.187Z,10.13
2022-12-05T11:42:25.824Z,10.60
2022-12-05T11:45:07.287Z,10.07
2022-12-05T11:47:34.709Z,10.50
2022-12-05T11:50:13.829Z,10.13
2022-12-05T11:52:41.276Z,9.70
2022-12-05T11:55:23.063Z,10.30
2022-12-05T11:57:59.443Z,9.20
2022-12-05T12:00:36.015Z,9.97
2022-12-05T12:03:15.903Z,9.77
2022-12-05T12:05:51.167Z,9.53
2022-12-05T12:08:29.727Z,10.13
2022-12-05T12:10:57.157Z,11.53
2022-12-05T12:13:49.898Z,11.33
2022-12-05T12:16:27.607Z,10.83
2022-12-05T12:19:07.638Z,11.50
2022-12-05T12:21:48.409Z,12.03
2022-12-05T12:24:16.312Z,12.50
2022-12-05T12:26:58.814Z,13.50
2022-12-05T12:29:32.197Z,13.40
2022-12-05T12:32:14.943Z,12.10
2022-12-05T12:34:49.565Z,12.17
2022-12-05T12:37:21.348Z,12.57
2022-12-05T12:39:49.128Z,12.33
2022-12-05T12:42:28.280Z,13.10
2022-12-05T12:45:15.963Z,12.30
2022-12-05T12:47:43.389Z,12.17
2022-12-05T12:50:13.891Z,12.20
2022-12-05T12:53:01.606Z,12.60
2022-12-05T12:55:52.469Z,13.77
2022-12-05T12:58:38.823Z,14.47
2022-12-05T13:01:25.345Z,12.83
2022-12-05T13:04:02.349Z,12.30
2022-12-05T13:06:29.849Z,12.77
2022-12-05T13:08:59.874Z,12.00
2022-12-05T13:11:32.981Z,13.43
2022-12-05T13:14:01.907Z,13.57
2022-12-05T13:16:31.940Z,14.60
2022-12-05T13:18:59.637Z,13.67
2022-12-05T13:21:28.273Z,13.70
2022-12-05T13:23:59.194Z,13.60
2022-12-05T13:26:26.723Z,15.13
2022-12-05T13:28:56.273Z,14.00
2022-12-05T13:31:44.441Z,14.37
2022-12-05T13:34:35.265Z,14.30
2022-12-05T13:37:29.946Z,13.90
2022-12-05T13:40:16.662Z,14.10
2022-12-05T13:42:44.154Z,14.80
2022-12-05T13:45:16.356Z,13.87
2022-12-05T13:47:56.266Z,15.23
2022-12-05T13:50:35.067Z,14.87
2022-12-05T13:53:07.813Z,14.47
2022-12-05T13:55:37.106Z,16.33
2022-12-05T13:58:24.479Z,15.60
2022-12-05T14:00:52.551Z,15.13
2022-12-05T14:03:35.446Z,15.67
2022-12-05T14:06:02.885Z,14.80
2022-12-05T14:08:37.698Z,15.70
2022-12-05T14:11:05.818Z,16.03
2022-12-05T14:13:33.712Z,14.40
2022-12-05T14:16:20.066Z,16.23
2022-12-05T14:18:56.246Z,16.50
2022-12-05T14:21:36.498Z,17.17
2022-12-05T14:24:07.486Z,16.57
2022-12-05T14:26:54.706Z,17.37
2022-12-05T14:29:25.353Z,17.03
2022-12-05T14:31:52.859Z,17.23
2022-12-05T14:34:33.685Z,16.10
2022-12-05T14:37:03.053Z,17.27
2022-12-05T14:39:33.214Z,16.87
2022-12-05T14:42:01.472Z,16.73
2022-12-05T14:44:32.267Z,16.57
2022-12-05T14:47:03.305Z,18.53
2022-12-05T14:49:37.702Z,18.03
2022-12-05T14:52:12.235Z,16.40
2022-12-05T14:54:40.285Z,19.03
2022-12-05T14:57:13.594Z,17.60
2022-12-05T14:59:46.300Z,17.47
2022-12-05T15:02:39.896Z,16.73
2022-12-05T15:05:30.693Z,15.77
2022-12-05T15:07:59.084Z,15.97
2022-12-05T15:10:35.457Z,16.77
2022-12-05T15:13:24.724Z,16.20
2022-12-05T15:15:56.006Z,15.37
2022-12-05T15:18:38.697Z,17.73
2022-12-05T15:21:27.728Z,17.03
2022-12-05T15:24:13.567Z,17.40
2022-12-05T15:26:48.918Z,17.93
2022-12-05T15:29:25.571Z,16.00
2022-12-05T15:31:56.157Z,15.57
2022-12-05T15:34:44.036Z,16.67
2022-12-05T15:37:11.453Z,16.07
2022-12-05T15:39:57.372Z,15.43
2022-12-05T15:42:29.858Z,15.20
2022-12-05T15:45:15.839Z,15.70
2022-12-05T15:47:47.444Z,15.53
2022-12-05T15:50:33.660Z,14.47
2022-12-05T15:53:24.120Z,15.73
2022-12-05T15:55:55.126Z,15.10
2022-12-05T15:58:58.563Z,14.73
2022-12-05T16:01:26.734Z,15.17
2022-12-05T16:04:03.360Z,14.87
2022-12-05T16:06:41.929Z,15.47
2022-12-05T16:09:13.818Z,13.67
2022-12-05T16:11:51.016Z,15.40
2022-12-05T16:14:37.221Z,16.23
2022-12-05T16:17:08.480Z,16.63
2022-12-05T16:19:36.035Z,16.03
2022-12-05T16:22:08.174Z,16.33
2022-12-05T16:24:43.424Z,17.37
2022-12-05T16:27:34.294Z,16.67
2022-12-05T16:30:14.066Z,16.93
2022-12-05T16:32:42.032Z,17.17
2022-12-05T16:35:27.852Z,16.83
2022-12-05T16:38:14.702Z,16.40
2022-12-05T16:40:45.740Z,14.23
2022-12-05T16:43:29.160Z,15.13
2022-12-05T16:45:59.114Z,16.07
2022-12-05T16:48:30.691Z,15.87
2022-12-05T16:51:17.243Z,16.03
2022-12-05T16:53:47.879Z,15.10
2022-12-05T16:56:17.673Z,15.10
2022-12-05T16:58:45.177Z,17.27
2022-12-05T17:01:17.640Z,15.40
2022-12-05T17:03:45.590Z,16.77
2022-12-05T17:06:14.748Z,16.07
2022-12-05T17:08:42.610Z,16.00
2022-12-05T17:11:16.301Z,14.97
2022-12-05T17:13:45.167Z,16.10
2022-12-05T17:16:12.694Z,15.83
2022-12-05T17:18:40.172Z,16.53
2022-12-05T17:21:07.557Z,15.37
2022-12-05T17:23:34.983Z,16.20
2022-12-05T17:26:02.464Z,16.93
2022-12-05T17:28:30.018Z,15.00
2022-12-05T17:30:57.503Z,16.70
2022-12-05T17:33:28.094Z,16.23
2022-12-05T17:35:55.574Z,17.63
2022-12-05T17:38:22.997Z,16.93
2022-12-05T17:40:50.677Z,17.97
2022-12-05T17:43:24.556Z,18.53
2022-12-05T17:45:54.504Z,18.17
2022-12-05T17:48:21.966Z,18.07
2022-12-05T17:50:49.882Z,18.40
2022-12-05T17:53:18.356Z,18.53
2022-12-05T17:55:48.559Z,17.17
2022-12-05T17:58:16.732Z,17.60
2022-12-05T18:00:45.031Z,18.07
2022-12-05T18:03:16.607Z,18.63
2022-12-05T18:05:44.598Z,20.60
2022-12-05T18:08:12.586Z,26.53
2022-12-05T18:10:44.083Z,18.77
2022-12-05T18:13:11.720Z,20.43
2022-12-05T18:15:43.005Z,19.67
2022-12-05T18:18:14.267Z,21.10
2022-12-05T18:20:41.681Z,20.37
2022-12-05T18:23:09.153Z,20.50
2022-12-05T18:25:38.737Z,21.77
2022-12-05T18:28:06.237Z,20.87
2022-12-05T18:30:33.686Z,20.30
2022-12-05T18:33:01.095Z,20.97
2022-12-05T18:35:40.851Z,20.90
2022-12-05T18:38:08.796Z,20.47
2022-12-05T18:40:36.464Z,21.43
2022-12-05T18:43:03.968Z,22.40
2022-12-05T18:45:31.606Z,23.13
2022-12-05T18:48:15.968Z,19.67
2022-12-05T18:50:46.866Z,21.33
2022-12-05T18:53:14.384Z,22.03
2022-12-05T18:58:29.515Z,21.93
2022-12-05T19:01:04.100Z,22.10
2022-12-05T19:03:32.612Z,22.10
2022-12-05T19:06:00.153Z,23.13
2022-12-05T19:08:27.728Z,21.60
2022-12-05T19:10:55.158Z,24.30
2022-12-05T19:13:22.833Z,22.53
2022-12-05T19:15:50.551Z,24.30
2022-12-05T19:18:18.092Z,23.97
2022-12-05T19:20:51.862Z,21.77
2022-12-05T19:23:19.349Z,24.57
2022-12-05T19:25:46.975Z,22.27
2022-12-05T19:28:14.527Z,24.93
2022-12-05T19:30:42.087Z,22.60
2022-12-05T19:33:09.637Z,22.80
2022-12-05T19:35:37.212Z,23.80
2022-12-05T19:38:05.167Z,22.67
2022-12-05T19:40:32.636Z,21.00
2022-12-05T19:43:00.215Z,22.60
2022-12-05T19:45:27.835Z,21.87
2022-12-05T19:47:55.732Z,20.07
2022-12-05T19:50:24.511Z,21.83
2022-12-05T19:52:52.173Z,20.90
2022-12-05T19:55:19.727Z,20.43
2022-12-05T19:57:47.392Z,19.13
2022-12-05T20:00:17.008Z,21.60
2022-12-05T20:02:45.907Z,18.20
2022-12-05T20:05:13.780Z,19.13
2022-12-05T20:07:41.274Z,16.53
2022-12-05T20:10:08.983Z,16.97
2022-12-05T20:12:36.536Z,15.90
2022-12-05T20:15:04.379Z,16.70
2022-12-05T20:17:32.037Z,16.03
2022-12-05T20:19:59.977Z,19.03
2022-12-05T20:22:30.869Z,18.37
2022-12-05T20:24:58.528Z,17.50
2022-12-05T20:27:26.194Z,17.70
2022-12-05T20:29:53.716Z,17.23
2022-12-05T20:32:21.514Z,16.17
2022-12-05T20:34:49.605Z,16.90
2022-12-05T20:37:17.223Z,16.17
2022-12-05T20:39:44.932Z,16.37
2022-12-05T20:42:12.690Z,19.87
2022-12-05T20:44:40.257Z,17.60
2022-12-05T20:47:07.610Z,15.87
2022-12-05T20:49:35.090Z,16.10
2022-12-05T20:52:02.669Z,14.83
2022-12-05T20:54:30.238Z,14.90
2022-12-05T20:56:57.927Z,15.53
2022-12-05T20:59:25.859Z,20.23
2022-12-05T21:01:53.343Z,16.93
2022-12-05T21:04:21.650Z,15.37
2022-12-05T21:06:49.797Z,14.90
2022-12-05T21:09:27.357Z,14.33
2022-12-05T21:11:55.588Z,13.77
2022-12-05T21:14:23.413Z,13.83
2022-12-05T21:16:53.172Z,14.07
2022-12-05T21:19:21.212Z,16.33
2022-12-05T21:21:50.161Z,13.57
2022-12-05T21:24:17.687Z,14.07
2022-12-05T21:26:45.298Z,12.77
2022-12-05T21:29:13.096Z,12.97
2022-12-05T21:31:42.502Z,13.47
2022-12-05T21:34:14.884Z,13.33
2022-12-05T21:36:42.540Z,13.07
2022-12-05T21:39:11.236Z,13.90
2022-12-05T21:41:39.074Z,14.80
2022-12-05T21:44:07.274Z,14.73
2022-12-05T21:46:35.258Z,14.67
2022-12-05T21:49:03.802Z,14.37
2022-12-05T21:51:31.360Z,13.50
2022-12-05T21:53:58.934Z,14.13
2022-12-05T21:56:26.684Z,13.00
2022-12-05T21:58:54.471Z,13.10
2022-12-05T22:01:27.181Z,13.40
2022-12-05T22:03:56.101Z,11.23
2022-12-05T22:06:23.577Z,12.33
2022-12-05T22:08:51.158Z,11.90
2022-12-05T22:11:20.040Z,11.77
2022-12-05T22:13:48.871Z,10.97
2022-12-05T22:16:16.880Z,11.27
2022-12-05T22:18:44.547Z,10.83
2022-12-05T22:21:16.817Z,10.97
2022-12-05T22:23:44.687Z,11.53
2022-12-05T22:26:14.185Z,12.73
2022-12-05T22:28:41.861Z,10.63
2022-12-05T22:31:11.399Z,11.77
2022-12-05T22:33:39.332Z,13.23
2022-12-05T22:36:08.023Z,13.07
2022-12-05T22:38:36.640Z,12.70
2022-12-05T22:41:06.198Z,12.67
2022-12-05T22:43:34.904Z,13.17
2022-12-05T22:46:13.071Z,13.80
2022-12-05T22:48:40.614Z,14.50
2022-12-05T22:51:08.571Z,12.73
2022-12-05T22:53:36.809Z,12.20
2022-12-05T22:56:05.322Z,12.43
2022-12-05T22:58:32.942Z,12.33
2022-12-05T23:01:17.554Z,12.63
2022-12-05T23:03:45.690Z,11.80
2022-12-05T23:06:14.379Z,11.77
2022-12-05T23:08:43.146Z,12.87
2022-12-05T23:11:11.153Z,12.80
2022-12-05T23:13:39.407Z,13.90
2022-12-05T23:16:11.254Z,13.07
2022-12-05T23:18:48.700Z,12.13
2022-12-05T23:21:33.484Z,11.40
2022-12-05T23:24:02.076Z,12.20
2022-12-05T23:26:31.067Z,12.73
2022-12-05T23:28:59.059Z,12.57
2022-12-05T23:31:26.863Z,12.27
2022-12-05T23:33:59.738Z,12.17
2022-12-05T23:36:30.348Z,13.07
2022-12-05T23:38:57.834Z,12.67
2022-12-05T23:41:26.157Z,12.63
2022-12-05T23:43:54.303Z,11.47
2022-12-05T23:46:23.318Z,15.20
2022-12-05T23:48:50.913Z,12.57
2022-12-05T23:51:19.792Z,12.57
2022-12-05T23:53:48.215Z,13.70
2022-12-05T23:56:17.459Z,12.30
2022-12-05T23:58:45.455Z,13.30
